KBPG

Big Spring Mc Mahon-Wrinkle Airport

Big Spring, Texas, USA
METAR KBPG 231115Z AUTO 16003KT 1 1/4SM OVC003 12/12 A3019 RMK AO2 T01200117
Observed Flight Rules
Oct-23 @ 11:15 UTC (35 minutes ago) Instrument Flight Rules
Wind Visibility Clouds
160° at 3 knots 1 1/4 miles
  • Overcast at 300' AGL
Temperatures Readings
Current 12°C / 54°F
Dewpoint 12°C / 54°F
Humidity 100%
Altimeter 30.19" Hg
Pressure 1022 hPa
Elevation 784
METAR KBPG 231115Z AUTO 16003KT 1 1/4SM OVC003 12/12 A3019 RMK AO2 T01200117
Observed Flight Rules
Oct-23 @ 11:15 UTC
(35 minutes ago)
LIFR
Wind Visibility
160° at 3 knots 1 1/4 miles
Clouds
  • Overcast at 300' AGL
Temperature Dewpoint
12°C / 54°F 12°C / 54°F
Humidity Altimeter Pressure
100% 30.19" Hg 1022 hPa